Bunch, OK (74931)

8:31 AM CST on December 04, 2016 (GMT -0600)
Sallisaw | | Change Station

Elev 541 ft 35.46 °N, 94.80 °W | Updated 11 minutes ago

Light Rain
Light Rain
43.3 °F
Feels Like 43 °F
N
0.0
Wind Variable Wind from East
Gusts 0.0 mph

Today
High -- | Low -- °F
--% Chance of Precip.
Yesterday
High -- | Low -- °F
Precip. -- in
Pressure 30.05 in
Visibility 5.0 miles
Clouds Scattered Clouds 600 ft
Overcast 3600 ft
Windchill 43 °F
Dew Point 42 °F
Humidity 95%
Rainfall 0.09 in
Snow Depth Not available.
7:13 AM 5:05 PM
Waxing Crescent, 23% visible
METAR KJSV 041415Z AUTO 00000KT 5SM -RA SCT006 OVC036 06/05 A3005 RMK AO2
Pressure 30.05 in
Visibility 5.0 miles
Clouds Scattered Clouds 600 ft
Overcast 3600 ft
Windchill 43 °F
Dew Point 42 °F
Humidity 95%
Rainfall 0.09 in
Snow Depth Not available.
7:13 AM 5:05 PM
Waxing Crescent, 23% visible
METAR KJSV 041415Z AUTO 00000KT 5SM -RA SCT006 OVC036 06/05 A3005 RMK AO2

10-Day Weather Forecast

Almanac

Astronomy

Dec. 04, 2016 Rise Set
Actual Time
Civil Twilight
Nautical Twilight
Astronomical Twilight
Moon
Length of Visible Light
Length of Day
Tomorrow will be .
, % of the Moon is Illuminated

Today's Extremes

State Highs State Lows

Community

WunderPhotos

Upload Photos

1,955,598 photos uploaded!

WunderBlog® & News

Nearby

Air Quality

  Air Quality AQ Index Pollutant
Not available.

Snow Depth

Station Depth Elevation

Earthquake Activity

City Distance Mag. Time & Date
Minimum magnitude displayed is 2.5.

Coastal Water Temperatures

Place Temperature

Stations

Nearby Weather Stations

Station Location Temp. Windchill Dew Point Humidity Wind Precip. Elev Updated Type
                   

Watches & Warnings

There are currently no watches in effect.